Airfield :







YOU CAN JOIN US ON...

 
LOGIN :

Register | Disclaimer

   EN    FR    IT 

 









Legend :    VFR   Marginal VFR   IFR   Intensive IFR   Very Intensive IFR
Visi :
Ceiling :
>= 8 km
>= 3000ft
5 to 8 km
1000 to 3000 ft
1500m to 5 km
500 to 1000 ft
800 to 1500m
200 to 500 ft
< 800m
< 200 ft
Symbols :   Thunderstorms  Fog  Heavy snow  Heavy precipitations  Wind > 20 kt







- Airport Elevation : 39 ft
- IATA code : YNA


CYNA - Natashquan

CURRENT METAR :
  • 171800Z AUTO 17016KT 9SM SCT040 22/15 A2961 RMK SLP027 DENSITY ALT 1200FT

EXPIRED METARs :
  • 171700Z AUTO 19013G19KT 9SM BKN085 22/15 A2963 RMK SLP034 DENSITY ALT 1100FT
  • 171600Z AUTO 18014G19KT 9SM OVC042 21/15 A2964 RMK SLP039 DENSITY ALT 1000FT

TAF TAF CYNA
Valid from the 17 at 14:00 until the 18 at 02:00 UTC


171338Z 1714/1802 19012G22KT P6SM SCT120
TEMPO 1714/1720 FEW040 BKN100
FM172000 21010KT P6SM FEW020 BKN040
TEMPO 1720/1801 BKN020 BKN040
BECMG 1722/1724 26010KT
FM180100 26010KT P6SM SCT040 RMK FCST BASED ON AUTO OBS. NXT FCST BY 172000Z
CZUL FIR / North America



MET'MAP, your aeronautical weather chart ! - Copyright ORBIFLY December 2007 - Disclaimer

ORBIFLY MET'MAP TEAM :

Programming & Development : Alexandra Zaïnal
Concept & Development : Baudouin d'Aumeries
Co-Development & Prog : Marc-Olivier Méhu
Technical & hardware support : Manuel Goepfert

Contact : metmap@orbifly.com




SOURCES & CREDITS :

   NOAA